Flight Track Log - Related Links

Times and Time Zones

All times are in EDT time to prevent confusion due to time zone crossing. See the UAL395 flight status page for this flight to view local times or setup timezone preferences in your user account.

Time Position Orientation Groundspeed Altitude Reporting Facility
EDT Latitude Longitude Course Direction KTS MPH feet Rate Location/Type
Wed 02:29:39 PM 38.9333 -77.5500 270° West 202 232 3,100  Level Potomac TRACON
Wed 02:30:40 PM 38.9333 -77.6333 270° West 249 287 6,000 3,102 Climbing Potomac TRACON
Wed 02:31:00 PM 38.8781 -77.8369 260° West  Level FlightAware Approximate
Wed 02:32:00 PM 38.8828 -77.9649 293° West  Level FlightAware Approximate
Wed 02:32:06 PM 38.9356 -77.7667 271° West 276 318 10,700  Level Washington Center
Wed 02:33:00 PM 38.9147 -78.0920 288° West  Level FlightAware Approximate
Wed 02:33:06 PM 38.9419 -77.8683 275° West 282 325 14,200  Level Washington Center
Wed 02:34:00 PM 38.9500 -78.2157 270° West  Level FlightAware Approximate
Wed 02:34:04 PM 38.9481 -77.9778 274° West 297 342 16,000  Level Washington Center
Wed 02:35:00 PM 38.9500 -78.3494 270° West  Level FlightAware Approximate
Wed 02:35:05 PM 38.9525 -78.0714 274° West 317 365 18,300  Level Washington Center
Wed 02:36:05 PM 38.9597 -78.2158 274° West 331 381 21,600 2,950 Climbing Washington Center
Wed 02:37:05 PM 38.9656 -78.3389 274° West 344 396 24,200 2,132 Climbing Washington Center
Wed 02:38:06 PM 38.9689 -78.4644 272° West 349 402 25,900 1,765 Climbing Washington Center
Wed 02:39:04 PM 38.9719 -78.5928 272° West 349 402 27,700 1,765 Climbing Washington Center
Wed 02:40:05 PM 38.9769 -78.7239 273° West 360 414 29,400 1,525 Climbing Washington Center
Wed 02:41:06 PM 38.9817 -78.8547 273° West 366 421 30,800 1,563 Climbing Washington Center
Wed 02:42:04 PM 38.9842 -78.9883 271° West 376 433 32,500 1,678 Climbing Washington Center
Wed 02:43:04 PM 38.9867 -79.1194 271° West 376 433 34,100 1,339 Climbing Washington Center
Wed 02:44:05 PM 38.9911 -79.2533 272° West 381 438 35,200 934 Climbing Washington Center
Wed 02:45:06 PM 38.9931 -79.3894 271° West 386 444 36,000 403 Climbing Washington Center
Wed 02:46:04 PM 38.9969 -79.5258 272° West 386 444 36,000  Level Washington Center
Wed 02:47:05 PM 39.0006 -79.6706 272° West 398 458 36,000  Level Washington Center
Wed 02:48:42 PM 39.0017 -79.8794 270° West 397 457 36,000  Level Indianapolis Center
Wed 02:49:44 PM 39.0022 -80.0456 270° West 400 460 36,000  Level Indianapolis Center
Wed 02:50:46 PM 39.0053 -80.1886 272° West 401 461 36,000  Level Indianapolis Center
Wed 02:51:48 PM 39.0072 -80.3322 271° West 402 463 36,000  Level Indianapolis Center
Wed 02:52:50 PM 39.0097 -80.4769 271° West 405 466 36,000  Level Indianapolis Center
Wed 02:53:52 PM 39.0117 -80.6189 271° West 400 460 36,000  Level Indianapolis Center
Wed 02:54:54 PM 39.0147 -80.7528 272° West 380 437 36,000  Level Indianapolis Center
Wed 02:55:56 PM 39.0533 -80.9106 288° West 391 450 36,000  Level Indianapolis Center
Wed 02:56:58 PM 39.1064 -81.0333 299° West 394 453 36,000  Level Indianapolis Center
Wed 02:58:00 PM 39.1572 -81.1592 298° West 398 458 36,000  Level Indianapolis Center
Wed 02:59:02 PM 39.2086 -81.2839 298° West 397 457 36,000  Level Indianapolis Center
Wed 03:00:04 PM 39.2597 -81.4092 298° West 396 456 36,000  Level Indianapolis Center
Wed 03:01:06 PM 39.3117 -81.5350 298° West 398 458 36,000  Level Indianapolis Center
Wed 03:02:09 PM 39.3725 -81.6861 298° West 397 457 36,000  Level Indianapolis Center
Wed 03:03:11 PM 39.4228 -81.8128 297° West 397 457 36,000  Level Indianapolis Center
Wed 03:04:13 PM 39.4742 -81.9400 298° West 399 459 36,000  Level Indianapolis Center
Wed 03:05:15 PM 39.5253 -82.0692 297° West 404 465 36,000  Level Indianapolis Center
Wed 03:06:17 PM 39.5842 -82.2186 297° West 406 467 36,000  Level Indianapolis Center
Wed 03:07:19 PM 39.6369 -82.3506 297° West 409 471 36,000  Level Indianapolis Center
Wed 03:08:21 PM 39.6892 -82.4811 297° West 405 466 36,000 -48 Level Indianapolis Center
Wed 03:09:23 PM 39.7394 -82.6111 297° West 401 461 35,900 -48 Descending Indianapolis Center
Wed 03:10:25 PM 39.7917 -82.7411 298° West 402 463 35,900  Level Indianapolis Center
Wed 03:11:27 PM 39.8411 -82.8703 297° West 398 458 35,900 48 Level Indianapolis Center
Wed 03:12:29 PM 39.8997 -83.0222 297° West 400 460 36,000  Climbing Indianapolis Center
Wed 03:13:31 PM 39.9628 -83.1472 303° West 413 475 35,900 -48 Descending Indianapolis Center
Wed 03:14:33 PM 40.0272 -83.2722 304° West 414 476 35,900  Level Indianapolis Center
Wed 03:15:35 PM 40.0908 -83.3964 304° West 413 475 35,900  Level Indianapolis Center
Wed 03:16:37 PM 40.1547 -83.5217 304° West 415 478 35,900 48 Level Indianapolis Center
Wed 03:17:39 PM 40.2186 -83.6472 304° West 413 475 36,000 48 Climbing Indianapolis Center
Wed 03:18:41 PM 40.2925 -83.7953 303° West 414 476 36,000 -48 Level Indianapolis Center
Wed 03:19:43 PM 40.3564 -83.9233 303° West 416 479 35,900 -290 Descending Indianapolis Center
Wed 03:20:45 PM 40.4200 -84.0506 303° West 416 479 35,400 -435 Descending Indianapolis Center
Wed 03:21:47 PM 40.4839 -84.1775 304° West 415 478 35,000 -194 Descending Indianapolis Center
Wed 03:22:49 PM 40.5461 -84.3022 303° West 408 470 35,000 -290 Level Indianapolis Center
Wed 03:23:51 PM 40.6042 -84.4211 303° West 390 449 34,400 -532 Descending Indianapolis Center
Wed 03:24:53 PM 40.6733 -84.5583 304° West 384 442 33,900 -242 Descending Indianapolis Center
Wed 03:25:55 PM 40.7308 -84.6778 302° West 383 441 33,900 48 Level Indianapolis Center
Wed 03:26:57 PM 40.7883 -84.7958 303° West 382 440 34,000  Climbing Indianapolis Center
Wed 03:27:59 PM 40.8458 -84.9147 303° West 381 438 33,900  Descending Indianapolis Center
Wed 03:28:38 PM 40.8797 -84.9814 304° West 379 436 34,000 59 Climbing Chicago Center
Wed 03:29:41 PM 40.9367 -85.0986 303° West 378 435 34,000 -144 Level Chicago Center
Wed 03:30:43 PM 40.9961 -85.2147 304° West 380 437 33,700 -726 Descending Chicago Center
Wed 03:31:45 PM 41.0781 -85.3378 311° West 373 429 32,500 -823 Descending Chicago Center
Wed 03:32:47 PM 41.1456 -85.4411 311° West 370 426 32,000 -242 Descending Chicago Center
Wed 03:33:49 PM 41.1950 -85.5603 299° West 380 437 32,000 -435 Level Chicago Center
Wed 03:34:51 PM 41.2208 -85.6942 284° West 374 430 31,100 -1,742 Descending Chicago Center
Wed 03:35:53 PM 41.2439 -85.8258 283° West 365 420 28,400 -2,226 Descending Chicago Center
Wed 03:36:55 PM 41.2683 -85.9572 284° West 365 420 26,500 -1,645 Descending Chicago Center
Wed 03:37:57 PM 41.2989 -86.1014 286° West 403 464 25,000 -1,016 Descending Chicago Center
Wed 03:38:59 PM 41.3306 -86.2781 283° West 415 478 24,400 -968 Descending Chicago Center
Wed 03:40:01 PM 41.3164 -86.4247 263° West 404 465 23,000 -912 Descending Chicago Center
Wed 03:41:04 PM 41.3036 -86.5706 263° West 399 459 22,500 -1,248 Descending Chicago Center
Wed 03:42:06 PM 41.2917 -86.7250 264° West 394 453 20,400 -1,306 Descending Chicago Center
Wed 03:43:08 PM 41.2833 -86.8672 266° West 389 448 19,800 -677 Descending Chicago Center
Wed 03:44:10 PM 41.3008 -87.0006 280° West 376 433 19,000 -677 Descending Chicago Center
Wed 03:45:12 PM 41.3431 -87.1272 294° West 377 434 18,400 -1,258 Descending Chicago Center
Wed 03:46:14 PM 41.4442 -87.2214 325° Northwest 374 430 16,400 -1,935 Descending Chicago Center
Wed 03:47:16 PM 41.5308 -87.2758 335° Northwest 360 414 14,400 -1,935 Descending Chicago Center
Wed 03:48:18 PM 41.5983 -87.3669 315° West 351 404 12,400 -1,161 Descending Chicago Center
Wed 03:49:20 PM 41.6597 -87.4628 311° West 345 397 12,000 -1,016 Descending Chicago Center
Wed 03:50:22 PM 41.7331 -87.5761 311° West 341 392 10,300 -968 Descending Chicago Center
Wed 03:51:24 PM 41.7931 -87.6725 310° West 342 394 10,000 -480 Descending Chicago Center
Wed 03:52:27 PM 41.8472 -87.7522 312° West 300 345 9,300 -480 Descending Chicago Center
Wed 03:53:29 PM 41.8828 -87.8283 302° West 256 295 9,000 -159 Descending Chicago Center
Wed 03:54:20 PM 41.8833 -87.9000 271° West 209 241 9,000  Level Chicago TRACON
Wed 03:55:26 PM 41.8833 -87.9833 270° West 209 241 9,000  Level Chicago TRACON
Wed 03:56:26 PM 41.8833 -88.0667 270° West 200 230 9,000  Level Chicago TRACON
Wed 03:57:21 PM 41.8833 -88.1333 270° West 200 230 9,000 -522 Level Chicago TRACON
Wed 03:58:21 PM 41.8833 -88.2000 270° West 182 209 8,000 -500 Descending Chicago TRACON
Wed 03:59:21 PM 41.8833 -88.2833 270° West 263 303 8,000  Level Chicago TRACON
Wed 04:00:21 PM 41.8833 -88.3500 270° West 183 211 8,000 -650 Level Chicago TRACON
Wed 04:01:21 PM 41.8833 -88.4167 270° West 189 217 6,700 -1,250 Descending Chicago TRACON
Wed 04:02:21 PM 41.9333 -88.4333 346° North 201 231 5,500 -850 Descending Chicago TRACON
Wed 04:03:21 PM 41.9667 -88.3833 48° Northeast 195 224 5,000 -333 Descending Chicago TRACON
Wed 04:03:51 PM 41.9658 -88.3442 92° East 189 217 5,000  Level Chicago Center
Wed 04:04:54 PM 41.9672 -88.2750 88° East 186 214 5,000 -96 Level Chicago Center
Wed 04:05:56 PM 41.9672 -88.2047 90° East 187 215 4,800 -484 Descending Chicago Center
Wed 04:06:58 PM 41.9678 -88.1358 89° East 187 215 4,000 -774 Descending Chicago Center

Login

Don't have an account? Register now (free) for customized features, flight alerts, and more!